Southwest Florida International Airport

KRSW · 佛罗里达州, 美国

罗盘
风向 的 风向 320° Southwest Florida International Airport 6/24
风: 7 kt, 3 beaufort


7 kt
改变
0 ft 1.000 2.000 3.000 4.000 5.000
没有云
METAR KRSW 121953Z 32007KT 10SM CLR 27/09 A3011 RMK AO2 SLP193 T02720094

METAR Southwest Florida International Airport - KRSW/RSW

Southwest Florida International Airport是,美国中的大型机场。 该机场位于纬度26,53616和经度-81,75516。 该机场有一条跑道: 6/24. 本场的ICAO机场代码为KRSW。 该机场的本地机场标识(FAA LID)为RSW。 该机场的IATA代码为RSW。 机场在Miami FIR中。

该航空气象观测是针对Southwest Florida International Airport在2024年4月12日 15:53, 当地时间进行的。

机场观察

风向为320°,速度为7 kt。

可见度为10 mi。

有没有云。 没有观察到天花板。

温度和风寒是27 °C。 露点为9 °C,相对湿度为32%。 海平面上的气压为30,11 inHg (QNH)。

白天

今天,太阳从07:05升起,在19:49降落。 这适用于Southwest Florida International Airport,世界夏令时可能有所不同。 当地时间与世界标准时间之间的时差为-4 小时。 夏令时目前正在进行中。

公司介绍

我们没有关于这个机场的公司信息。

体会

到Vliegles.nl去找飞行课程,跳伞和其他飞行体验。 浏览页面,了解Southwest Florida International Airport附近所有可用的活动。 你也可以使用搜索功能来寻找你所在地附近的特定飞行课程、跳伞或其他飞行体验。

跑道

Id 标题 侧风 逆风 侧风 %
6/24 054°-234° 7 kt 100 %

逆风成分最大的方向会被突出显示,并用于横风计算。 这并不一定意味着这个方向在使用。

乌云

- CLR 没有云

温度 & 天气

温度 27,2 °C
露点 9,4 °C
相对湿度 32%
Kp-index 1 (0-9)

评论

AO2自动气象站,可确定降水类型
SLP193海平面压力为30,10 inHg (30,10 inHg)
T02720094温度为27,2 °C (81,0 °F),露点为9,4 °C (48,9 °F)

白天

日出
07:05
中午
13:27
日落
19:49 (3:20)

小工具

你想在你的网站上有一个关于Southwest Florida International Airport的当前航空天气(METAR)的小部件吗?

显示HTML代码
报告变更